Holy Angel — WDE3457 — position and weather

sailwx.info

Track history (hours):
 
Tides and Currents Weather Stations Pressure Air Temp Water Temp Dewpoint Dewpoint Depression Visibility Wind Speed Wind Dir Waves Ship Positions

Holy Angel

Owner: Marquette transportation Company LLC, Paducah, KY. More information available from US FCC via Universal Licensing System and Coast Guard Vessel Documentation Center.

Last reported at 2017-Jul-08 18:20 UTC. Time now 2017-Jul-21 20:41 UTC.
Position N 41°10' W 091°01'.
Warning: this ship's position is 13 days out of date.

Length 40 m; draft 3 m.

Type: Towing. MMSI: 367339320.

Date/timePositionNaut miles runAvg speedWind from/ knotsBaromVisibWave heightAir tempDewpointWater temp
2017-Jul-08 18:20N 41°10' W 091°01'4 2.2
2017-Jul-08 16:45N 41°07' W 090°58'1 4.4
2017-Jul-08 16:30N 41°07' W 090°57'2 4.0
2017-Jul-08 16:00N 41°05' W 090°57'2 4.2
2017-Jul-08 15:30N 41°02' W 090°56'2 3.6
2017-Jul-08 15:00N 41°01' W 090°57'3 3.3
2017-Jul-08 14:00N 40°57' W 090°57'2 3.8
2017-Jul-08 13:30N 40°56' W 090°58'2 3.2
2017-Jul-08 13:00N 40°55' W 090°60'2 3.9
2017-Jul-08 12:30N 40°53' W 091°01'0 0.8
2017-Jul-08 12:00N 40°53' W 091°01'0 0.2
2017-Jul-08 11:30N 40°53' W 091°02'0 0.4
2017-Jul-08 11:00N 40°53' W 091°02'2 3.4
2017-Jul-08 10:30N 40°51' W 091°03'2 3.7
2017-Jul-08 10:00N 40°50' W 091°05'2 3.5
2017-Jul-08 09:30N 40°48' W 091°06'2 3.9
2017-Jul-08 09:00N 40°46' W 091°06'2 4.0
2017-Jul-08 08:27N 40°44' W 091°07'0 0.4
2017-Jul-08 07:26N 40°44' W 091°07'0 0.0
2017-Jul-08 07:00N 40°44' W 091°07'1 1.2
2017-Jul-08 06:24N 40°43' W 091°07'6 2.2
2017-Jul-08 03:53N 40°39' W 091°11'2 4.6
2017-Jul-08 03:30N 40°38' W 091°13'1 1.1
2017-Jul-08 03:00N 40°38' W 091°14'  
Track history (hours):
 
Tides and Currents Weather Stations Pressure Air Temp Water Temp Dewpoint Dewpoint Depression Visibility Wind Speed Wind Dir Waves Ship Positions

Holy Angel

Owner: Marquette transportation Company LLC, Paducah, KY. More information available from US FCC via Universal Licensing System and Coast Guard Vessel Documentation Center.

Last reported at 2017-Jul-08 18:20 UTC. Time now 2017-Jul-21 20:41 UTC.
Position N 41°10' W 091°01'.
Warning: this ship's position is 13 days out of date.

Length 40 m; draft 3 m.

Type: Towing. MMSI: 367339320.

Date/timePositionNaut miles runAvg speedWind from/ knotsBaromVisibWave heightAir tempDewpointWater temp
2017-Jul-08 18:20N 41°10' W 091°01'4 2.2
2017-Jul-08 16:45N 41°07' W 090°58'1 4.4
2017-Jul-08 16:30N 41°07' W 090°57'2 4.0
2017-Jul-08 16:00N 41°05' W 090°57'2 4.2
2017-Jul-08 15:30N 41°02' W 090°56'2 3.6
2017-Jul-08 15:00N 41°01' W 090°57'3 3.3
2017-Jul-08 14:00N 40°57' W 090°57'2 3.8
2017-Jul-08 13:30N 40°56' W 090°58'2 3.2
2017-Jul-08 13:00N 40°55' W 090°60'2 3.9
2017-Jul-08 12:30N 40°53' W 091°01'0 0.8
2017-Jul-08 12:00N 40°53' W 091°01'0 0.2
2017-Jul-08 11:30N 40°53' W 091°02'0 0.4
2017-Jul-08 11:00N 40°53' W 091°02'2 3.4
2017-Jul-08 10:30N 40°51' W 091°03'2 3.7
2017-Jul-08 10:00N 40°50' W 091°05'2 3.5
2017-Jul-08 09:30N 40°48' W 091°06'2 3.9
2017-Jul-08 09:00N 40°46' W 091°06'2 4.0
2017-Jul-08 08:27N 40°44' W 091°07'0 0.4
2017-Jul-08 07:26N 40°44' W 091°07'0 0.0
2017-Jul-08 07:00N 40°44' W 091°07'1 1.2
2017-Jul-08 06:24N 40°43' W 091°07'6 2.2
2017-Jul-08 03:53N 40°39' W 091°11'2 4.6
2017-Jul-08 03:30N 40°38' W 091°13'1 1.1
2017-Jul-08 03:00N 40°38' W 091°14'  

Dump ship's entire track history